Time;durP1;ratioP1;P1;durP2;ratioP2;P2;SDS_P1;SDS_P2;PMS_P1;PMS_P2;Temp;Humidity;BMP_temperature;BMP_pressure;BME280_temperature;BME280_humidity;BME280_pressure;Samples;Min_cycle;Max_cycle;Signal;HPM_P1;HPM_P2
2023/07/21 00:00:18;;;;;;;1.52;1.20;;;21.60;57.00;;;;;;5134979;27;20201;-68
2023/07/21 00:02:44;;;;;;;1.38;1.30;;;21.70;57.00;;;;;;5136290;27;20168;-68
2023/07/21 00:05:10;;;;;;;1.42;1.33;;;21.60;57.00;;;;;;5135846;27;20180;-67
2023/07/21 00:07:36;;;;;;;1.60;1.30;;;21.70;57.00;;;;;;5135380;27;20187;-68
2023/07/21 00:10:07;;;;;;;1.35;1.25;;;21.60;56.90;;;;;;5135545;27;20208;-67
2023/07/21 00:12:34;;;;;;;1.35;1.10;;;21.60;57.00;;;;;;5135740;27;20173;-67
2023/07/21 00:15:00;;;;;;;1.90;1.25;;;21.70;57.00;;;;;;5134120;27;20516;-67
2023/07/21 00:17:28;;;;;;;1.08;1.08;;;21.70;57.60;;;;;;5135985;27;20271;-66
2023/07/21 00:19:53;;;;;;;1.50;1.33;;;21.60;56.90;;;;;;5135768;27;20244;-68
2023/07/21 00:22:19;;;;;;;1.10;1.00;;;21.60;56.90;;;;;;5134446;27;20169;-67
2023/07/21 00:24:45;;;;;;;0.95;0.95;;;21.60;57.60;;;;;;5135446;27;20180;-67
2023/07/21 00:27:11;;;;;;;1.10;1.10;;;21.60;56.90;;;;;;5135405;27;20263;-66
2023/07/21 00:29:37;;;;;;;1.05;1.05;;;21.60;56.90;;;;;;5134548;27;20269;-66
2023/07/21 00:32:02;;;;;;;2.85;1.33;;;21.60;56.90;;;;;;5135396;27;20176;-67
2023/07/21 00:34:28;;;;;;;1.70;1.20;;;21.60;56.90;;;;;;5135526;27;20172;-67
2023/07/21 00:36:55;;;;;;;0.95;0.95;;;21.60;56.90;;;;;;5134589;27;20176;-68
2023/07/21 00:39:21;;;;;;;2.75;1.20;;;21.60;56.90;;;;;;5135154;27;20228;-68
2023/07/21 00:41:46;;;;;;;1.25;1.15;;;21.60;57.40;;;;;;5135315;27;20176;-67
2023/07/21 00:44:13;;;;;;;1.70;1.10;;;21.60;56.90;;;;;;5134101;27;20176;-67
2023/07/21 00:46:38;;;;;;;1.30;1.20;;;21.60;56.90;;;;;;5117971;27;20173;-66
2023/07/21 00:49:05;;;;;;;1.27;1.17;;;21.60;56.90;;;;;;5114205;28;20569;-66
2023/07/21 00:51:30;;;;;;;1.10;1.10;;;21.60;56.80;;;;;;5113959;28;20173;-66
2023/07/21 00:53:56;;;;;;;3.20;1.27;;;21.60;56.90;;;;;;5079079;28;20169;-66
2023/07/21 00:56:21;;;;;;;1.33;1.23;;;21.50;56.90;;;;;;5095493;28;20169;-66
2023/07/21 00:58:47;;;;;;;1.33;1.23;;;21.50;56.90;;;;;;5096030;28;20200;-67
2023/07/21 01:01:13;;;;;;;1.10;1.00;;;21.50;56.90;;;;;;5114176;28;20171;-68
2023/07/21 01:03:39;;;;;;;1.55;1.40;;;21.50;56.90;;;;;;5113762;28;20571;-68
2023/07/21 01:06:04;;;;;;;2.78;1.42;;;21.50;56.90;;;;;;5114052;28;20165;-68
2023/07/21 01:08:30;;;;;;;1.63;1.20;;;21.50;56.80;;;;;;5095987;28;20174;-67
2023/07/21 01:10:56;;;;;;;2.20;1.23;;;21.60;56.90;;;;;;5094811;28;20200;-67
2023/07/21 01:13:22;;;;;;;1.23;1.13;;;21.60;56.80;;;;;;5114095;28;20256;-67
2023/07/21 01:15:49;;;;;;;1.60;1.15;;;21.50;56.80;;;;;;5096011;28;20259;-67
2023/07/21 01:18:15;;;;;;;2.05;1.40;;;21.50;56.80;;;;;;5113168;28;20180;-67
2023/07/21 01:20:42;;;;;;;1.30;1.15;;;21.50;56.80;;;;;;5113915;28;20256;-67
2023/07/21 01:23:14;;;;;;;2.35;1.50;;;21.50;56.80;;;;;;5078948;28;20566;-67
2023/07/21 01:25:40;;;;;;;1.00;1.00;;;21.50;56.80;;;;;;5093969;28;20179;-67
2023/07/21 01:28:06;;;;;;;1.20;1.10;;;21.50;56.70;;;;;;5095293;28;20254;-67
2023/07/21 01:30:31;;;;;;;1.30;1.20;;;21.50;56.70;;;;;;5078782;28;20260;-67
2023/07/21 01:32:57;;;;;;;1.23;1.13;;;21.50;56.80;;;;;;5094543;28;20183;-67
2023/07/21 01:35:22;;;;;;;2.05;1.05;;;21.50;56.90;;;;;;5095607;28;20180;-68
2023/07/21 01:37:49;;;;;;;1.83;1.02;;;21.40;56.70;;;;;;5095374;28;20619;-68
2023/07/21 01:40:15;;;;;;;2.15;1.20;;;21.50;56.70;;;;;;5075174;28;20311;-67
2023/07/21 01:42:46;;;;;;;1.42;1.23;;;21.50;57.30;;;;;;5071448;28;20580;-66
2023/07/21 01:45:11;;;;;;;1.20;1.08;;;21.40;56.70;;;;;;5077468;28;20162;-67
2023/07/21 01:47:37;;;;;;;1.27;1.20;;;21.40;56.70;;;;;;5091214;28;20542;-66
2023/07/21 01:50:06;;;;;;;1.50;1.30;;;21.40;56.70;;;;;;5092683;28;20300;-66
2023/07/21 01:52:33;;;;;;;1.42;1.20;;;21.40;56.60;;;;;;5090611;28;20174;-66
2023/07/21 01:55:11;;;;;;;1.38;1.13;;;21.40;56.70;;;;;;5091265;28;20182;-66
2023/07/21 01:57:38;;;;;;;2.72;1.13;;;21.40;56.50;;;;;;5075648;28;20172;-67
2023/07/21 02:00:07;;;;;;;1.58;1.48;;;21.40;56.70;;;;;;5092038;28;20521;-68
2023/07/21 02:02:32;;;;;;;1.63;1.27;;;21.40;56.70;;;;;;5091768;28;20249;-67
2023/07/21 02:04:58;;;;;;;1.17;1.05;;;21.40;56.60;;;;;;5074425;28;20257;-67
2023/07/21 02:07:24;;;;;;;1.30;1.20;;;21.40;56.60;;;;;;5091990;28;20173;-67
2023/07/21 02:09:53;;;;;;;1.55;1.33;;;21.40;56.70;;;;;;5092631;28;20221;-67
2023/07/21 02:12:19;;;;;;;1.80;1.30;;;21.40;56.70;;;;;;5092510;28;20185;-67
2023/07/21 02:14:45;;;;;;;2.92;1.10;;;21.40;56.70;;;;;;5092061;28;20169;-66
2023/07/21 02:17:13;;;;;;;1.50;1.40;;;21.40;56.70;;;;;;5092493;28;20177;-66
2023/07/21 02:19:39;;;;;;;1.60;1.20;;;21.40;56.70;;;;;;5092563;28;20648;-66
2023/07/21 02:22:05;;;;;;;3.08;1.30;;;21.40;57.30;;;;;;5091524;28;20177;-67
2023/07/21 02:24:30;;;;;;;2.28;1.20;;;21.40;56.60;;;;;;5092745;28;20632;-67
2023/07/21 02:26:56;;;;;;;1.33;1.20;;;21.40;56.60;;;;;;5092428;28;20632;-66
2023/07/21 02:29:22;;;;;;;1.50;1.40;;;21.30;57.30;;;;;;5091606;28;20201;-67
2023/07/21 02:31:48;;;;;;;3.00;1.92;;;21.30;56.60;;;;;;5092279;28;20195;-67
2023/07/21 02:34:14;;;;;;;2.78;1.30;;;21.30;56.50;;;;;;5091970;28;20180;-67
2023/07/21 02:36:39;;;;;;;2.20;1.50;;;21.40;56.60;;;;;;5091729;28;20245;-67
2023/07/21 02:39:05;;;;;;;1.38;1.27;;;21.40;57.30;;;;;;5096556;28;20228;-67
2023/07/21 02:41:30;;;;;;;1.30;1.20;;;21.30;56.50;;;;;;5113009;28;20173;-68
2023/07/21 02:43:56;;;;;;;1.20;1.20;;;21.30;56.50;;;;;;5111656;28;20260;-66
2023/07/21 02:46:22;;;;;;;3.60;1.20;;;21.30;56.50;;;;;;5112591;28;20624;-67
2023/07/21 02:48:47;;;;;;;1.40;1.30;;;21.30;56.50;;;;;;5111546;28;20610;-66
2023/07/21 02:51:13;;;;;;;1.65;1.40;;;21.30;56.60;;;;;;5112196;28;20169;-66
2023/07/21 02:53:39;;;;;;;1.25;1.15;;;21.30;56.50;;;;;;5112760;28;20209;-66
2023/07/21 02:56:04;;;;;;;1.60;1.30;;;21.30;56.50;;;;;;5111414;28;20289;-68
2023/07/21 02:58:30;;;;;;;1.80;1.20;;;21.30;56.50;;;;;;5094296;28;20214;-69
2023/07/21 03:00:55;;;;;;;2.85;1.30;;;21.30;56.40;;;;;;5112336;28;20192;-69
2023/07/21 03:03:24;;;;;;;1.33;1.00;;;21.30;56.40;;;;;;5093590;28;20222;-69
2023/07/21 03:05:49;;;;;;;1.20;1.10;;;21.30;57.10;;;;;;5112406;28;20246;-69
2023/07/21 03:08:15;;;;;;;1.73;1.23;;;21.30;56.30;;;;;;5093961;28;20241;-68
2023/07/21 03:10:41;;;;;;;1.33;1.20;;;21.20;56.40;;;;;;5111894;28;20209;-68
2023/07/21 03:13:06;;;;;;;1.40;1.30;;;21.20;56.30;;;;;;5112061;28;20204;-68
2023/07/21 03:15:32;;;;;;;2.70;1.30;;;21.20;56.30;;;;;;5112481;28;20214;-68
2023/07/21 03:17:57;;;;;;;1.23;1.13;;;21.20;56.30;;;;;;5111473;28;20177;-68
2023/07/21 03:20:23;;;;;;;1.00;1.00;;;21.20;56.30;;;;;;5112208;28;20205;-68
2023/07/21 03:22:48;;;;;;;1.95;1.30;;;21.20;56.30;;;;;;5112781;28;20173;-67
2023/07/21 03:25:14;;;;;;;1.33;1.20;;;21.20;56.30;;;;;;5111593;28;20654;-67
2023/07/21 03:27:40;;;;;;;1.17;1.08;;;21.20;56.30;;;;;;5112345;28;20643;-67
2023/07/21 03:30:06;;;;;;;1.55;1.45;;;21.20;56.30;;;;;;5110760;28;20265;-67
2023/07/21 03:32:32;;;;;;;1.38;1.27;;;21.20;56.20;;;;;;5111475;28;20223;-67
2023/07/21 03:34:58;;;;;;;1.30;1.20;;;21.20;56.90;;;;;;5111767;28;20563;-68
2023/07/21 03:37:24;;;;;;;1.63;1.30;;;21.20;56.20;;;;;;5112420;28;20227;-69
2023/07/21 03:39:49;;;;;;;1.25;1.15;;;21.20;56.20;;;;;;5111328;28;20304;-68
2023/07/21 03:42:18;;;;;;;1.27;1.17;;;21.20;56.20;;;;;;5111682;28;20197;-68
2023/07/21 03:44:47;;;;;;;1.30;1.20;;;21.20;56.10;;;;;;5112170;28;20196;-67
2023/07/21 03:47:14;;;;;;;1.30;1.20;;;21.20;56.20;;;;;;5111087;28;20177;-68
2023/07/21 03:49:39;;;;;;;1.10;1.00;;;21.10;56.10;;;;;;5113650;28;20213;-67
2023/07/21 03:52:05;;;;;;;1.40;1.30;;;21.20;56.10;;;;;;5114517;28;20175;-67
2023/07/21 03:54:31;;;;;;;1.25;1.15;;;21.10;56.10;;;;;;5115606;28;20173;-68
2023/07/21 03:56:56;;;;;;;1.88;1.20;;;21.10;56.10;;;;;;5115369;28;20188;-67
2023/07/21 03:59:22;;;;;;;1.38;1.08;;;21.10;56.10;;;;;;5114830;28;20285;-68
2023/07/21 04:01:47;;;;;;;2.00;1.30;;;21.10;56.10;;;;;;5115334;28;20169;-68
2023/07/21 04:04:15;;;;;;;1.63;1.30;;;21.10;56.00;;;;;;5115289;28;20173;-68
2023/07/21 04:06:42;;;;;;;1.30;1.20;;;21.10;56.00;;;;;;5113512;28;20252;-68
2023/07/21 04:09:08;;;;;;;1.27;1.20;;;21.10;55.90;;;;;;5115088;28;20213;-68
2023/07/21 04:11:34;;;;;;;1.40;1.30;;;21.10;55.90;;;;;;5115515;28;20482;-68
2023/07/21 04:14:00;;;;;;;1.10;1.10;;;21.10;55.90;;;;;;5114314;28;20635;-67
2023/07/21 04:16:26;;;;;;;1.17;1.02;;;21.10;55.90;;;;;;5115269;28;20298;-67
2023/07/21 04:18:52;;;;;;;2.15;1.20;;;21.10;55.90;;;;;;5115105;28;20629;-67
2023/07/21 04:21:17;;;;;;;1.23;1.00;;;21.10;56.50;;;;;;5114382;28;20600;-68
2023/07/21 04:23:43;;;;;;;1.40;1.13;;;21.10;55.90;;;;;;5115050;28;20547;-67
2023/07/21 04:26:11;;;;;;;1.40;1.30;;;21.10;55.80;;;;;;5114847;28;20184;-67
2023/07/21 04:28:37;;;;;;;1.73;1.20;;;21.10;55.80;;;;;;5114231;28;20173;-67
2023/07/21 04:31:02;;;;;;;1.33;1.08;;;21.10;55.80;;;;;;5114875;28;20200;-68
2023/07/21 04:33:28;;;;;;;1.58;1.05;;;21.10;55.90;;;;;;5114824;28;20195;-68
2023/07/21 04:35:53;;;;;;;1.30;1.20;;;21.10;55.70;;;;;;5114338;28;20184;-70
2023/07/21 04:38:19;;;;;;;1.33;1.20;;;21.10;55.90;;;;;;5114857;28;20181;-71
2023/07/21 04:40:45;;;;;;;1.00;1.00;;;21.10;55.90;;;;;;5114572;28;20246;-69
2023/07/21 04:43:16;;;;;;;1.02;1.00;;;21.10;55.80;;;;;;5113951;28;20312;-68
2023/07/21 04:45:42;;;;;;;1.48;1.38;;;21.10;55.70;;;;;;5114779;28;20181;-68
2023/07/21 04:48:08;;;;;;;1.40;1.30;;;21.10;55.80;;;;;;5114685;28;20265;-68
2023/07/21 04:50:33;;;;;;;1.13;1.08;;;21.10;55.90;;;;;;5113786;28;20682;-68
2023/07/21 04:53:01;;;;;;;1.40;1.30;;;21.10;55.80;;;;;;5114228;28;20185;-67
2023/07/21 04:55:27;;;;;;;1.40;1.23;;;21.10;55.80;;;;;;5113917;28;20177;-67
2023/07/21 04:57:53;;;;;;;2.10;1.33;;;21.10;55.90;;;;;;5114348;28;20180;-67
2023/07/21 05:00:19;;;;;;;1.17;1.08;;;21.10;55.90;;;;;;5113900;28;20651;-68
2023/07/21 05:02:44;;;;;;;1.60;1.40;;;21.20;56.00;;;;;;5113496;28;20678;-67
2023/07/21 05:05:10;;;;;;;4.10;1.63;;;21.10;55.90;;;;;;5113405;28;20272;-68
2023/07/21 05:07:36;;;;;;;1.63;1.20;;;21.10;56.00;;;;;;5114149;28;20176;-68
2023/07/21 05:10:02;;;;;;;0.98;0.98;;;21.10;56.00;;;;;;5113154;28;20213;-67
2023/07/21 05:12:27;;;;;;;2.97;1.45;;;21.10;56.60;;;;;;5114059;28;20169;-67
2023/07/21 05:14:53;;;;;;;1.13;1.10;;;21.10;56.00;;;;;;5114004;28;20643;-66
2023/07/21 05:17:19;;;;;;;1.25;1.15;;;21.10;56.00;;;;;;5113045;28;20193;-67
2023/07/21 05:19:44;;;;;;;1.48;1.25;;;21.10;56.10;;;;;;5113947;28;20648;-66
2023/07/21 05:22:10;;;;;;;1.05;0.95;;;21.10;56.10;;;;;;5113668;28;20178;-67
2023/07/21 05:24:36;;;;;;;1.17;1.08;;;21.10;56.10;;;;;;5113311;28;20169;-67
2023/07/21 05:27:02;;;;;;;1.70;1.33;;;21.10;56.10;;;;;;5113664;28;20179;-68
2023/07/21 05:29:27;;;;;;;1.27;1.17;;;21.10;56.10;;;;;;5113826;28;20205;-68
2023/07/21 05:31:53;;;;;;;1.25;1.15;;;21.10;56.20;;;;;;5112748;28;20174;-68
2023/07/21 05:34:21;;;;;;;1.20;1.10;;;21.10;56.80;;;;;;5113696;28;20260;-68
2023/07/21 05:36:46;;;;;;;1.23;1.13;;;21.10;56.20;;;;;;5113596;28;20650;-70
2023/07/21 05:39:12;;;;;;;1.27;1.13;;;21.10;56.30;;;;;;5112344;28;20225;-68
2023/07/21 05:41:38;;;;;;;1.40;1.30;;;21.10;56.20;;;;;;5113667;28;20173;-70
2023/07/21 05:44:04;;;;;;;0.93;0.93;;;21.10;56.30;;;;;;5113306;28;20180;-68
2023/07/21 05:46:29;;;;;;;2.08;1.30;;;21.10;56.50;;;;;;5112710;28;20181;-68
2023/07/21 05:48:55;;;;;;;2.20;1.10;;;21.10;56.40;;;;;;5113616;28;20710;-68
2023/07/21 05:51:21;;;;;;;1.40;1.17;;;21.10;56.50;;;;;;5113587;28;20173;-67
2023/07/21 05:53:46;;;;;;;1.40;1.30;;;21.20;56.60;;;;;;5112703;28;20169;-68
2023/07/21 05:56:12;;;;;;;1.35;1.25;;;21.20;56.70;;;;;;5113094;28;20267;-68
2023/07/21 05:58:38;;;;;;;2.50;1.27;;;21.20;56.60;;;;;;5113038;28;20260;-68
2023/07/21 06:01:03;;;;;;;1.45;1.27;;;21.20;56.70;;;;;;5112725;28;20188;-67
2023/07/21 06:03:30;;;;;;;1.27;1.17;;;21.20;56.70;;;;;;5113768;28;20627;-69
2023/07/21 06:05:56;;;;;;;1.38;1.27;;;21.20;56.70;;;;;;5112791;28;20181;-69
2023/07/21 06:08:24;;;;;;;1.17;1.13;;;21.20;56.70;;;;;;5114354;28;20179;-68
2023/07/21 06:10:50;;;;;;;0.88;0.88;;;21.20;56.60;;;;;;5095610;28;20691;-69
2023/07/21 06:13:19;;;;;;;2.17;1.23;;;21.30;56.70;;;;;;5111580;28;20189;-68
2023/07/21 06:15:44;;;;;;;1.52;1.20;;;21.20;56.70;;;;;;5113151;28;20204;-67
2023/07/21 06:18:10;;;;;;;1.52;1.20;;;21.20;56.70;;;;;;5112761;28;20627;-67
2023/07/21 06:20:36;;;;;;;2.45;1.48;;;21.20;56.80;;;;;;5112342;28;20674;-68
2023/07/21 06:23:01;;;;;;;1.83;1.35;;;21.20;56.70;;;;;;5112754;28;20540;-68
2023/07/21 06:25:27;;;;;;;1.98;1.40;;;21.20;56.70;;;;;;5112943;28;20221;-69
2023/07/21 06:27:52;;;;;;;1.50;1.40;;;21.20;56.70;;;;;;5112093;28;20250;-67
2023/07/21 06:30:20;;;;;;;1.40;1.30;;;21.20;56.60;;;;;;5112557;28;20212;-68
2023/07/21 06:32:46;;;;;;;1.23;1.13;;;21.20;56.60;;;;;;5112841;28;20450;-68
2023/07/21 06:35:12;;;;;;;2.22;1.30;;;21.20;56.60;;;;;;5111740;28;20631;-70
2023/07/21 06:37:40;;;;;;;1.48;1.38;;;21.20;56.60;;;;;;5112644;28;20167;-69
2023/07/21 06:40:06;;;;;;;1.80;1.70;;;21.20;56.70;;;;;;5112039;28;20221;-69
2023/07/21 06:42:33;;;;;;;1.30;1.20;;;21.20;56.60;;;;;;5111885;28;20165;-68
2023/07/21 06:44:58;;;;;;;1.30;1.20;;;21.20;56.70;;;;;;5112416;28;20502;-68
2023/07/21 06:47:24;;;;;;;1.60;1.33;;;21.30;56.80;;;;;;5112504;28;20179;-66
2023/07/21 06:49:49;;;;;;;1.35;1.20;;;21.30;56.70;;;;;;5111745;28;20213;-68
2023/07/21 06:52:15;;;;;;;1.40;1.30;;;21.30;56.90;;;;;;5112349;28;20530;-67
2023/07/21 06:54:41;;;;;;;4.25;1.38;;;21.30;57.00;;;;;;5112747;28;20238;-68
2023/07/21 06:57:06;;;;;;;1.60;1.10;;;21.40;57.10;;;;;;5111683;28;20252;-67
2023/07/21 06:59:33;;;;;;;2.42;1.10;;;21.40;57.20;;;;;;5112470;28;20184;-68
2023/07/21 07:01:59;;;;;;;1.70;1.42;;;21.30;57.00;;;;;;5111658;28;20229;-71
2023/07/21 07:04:25;;;;;;;1.30;0.90;;;21.40;57.20;;;;;;5112478;28;20177;-70
2023/07/21 07:06:52;;;;;;;1.38;1.13;;;21.40;57.20;;;;;;5112763;28;20180;-69
2023/07/21 07:09:18;;;;;;;3.80;1.75;;;21.40;57.20;;;;;;5111458;28;20902;-68
2023/07/21 07:11:44;;;;;;;1.48;1.20;;;21.40;57.10;;;;;;5111838;28;20680;-68
2023/07/21 07:14:10;;;;;;;3.00;1.30;;;21.40;57.10;;;;;;5112360;28;20192;-68
2023/07/21 07:16:36;;;;;;;4.22;1.50;;;21.40;57.10;;;;;;5111873;28;20177;-68
2023/07/21 07:19:04;;;;;;;1.30;1.20;;;21.40;57.10;;;;;;5112213;28;20173;-68
2023/07/21 07:21:30;;;;;;;2.65;0.90;;;21.40;57.00;;;;;;5112616;28;20173;-69
2023/07/21 07:23:55;;;;;;;1.40;1.30;;;21.40;57.00;;;;;;5112356;28;20175;-68
2023/07/21 07:26:21;;;;;;;1.63;1.15;;;21.40;57.00;;;;;;5098315;28;20171;-68
2023/07/21 07:28:47;;;;;;;1.50;1.20;;;21.50;57.00;;;;;;5116199;28;20226;-68
2023/07/21 07:31:12;;;;;;;2.25;1.55;;;21.50;57.00;;;;;;5115461;28;20177;-67
2023/07/21 07:33:38;;;;;;;1.70;0.98;;;21.50;57.00;;;;;;5116159;28;20165;-70
2023/07/21 07:36:04;;;;;;;1.40;1.05;;;21.50;57.00;;;;;;5115950;28;20177;-69
2023/07/21 07:38:32;;;;;;;2.00;1.23;;;21.50;57.00;;;;;;5115191;28;20205;-69
2023/07/21 07:41:03;;;;;;;1.20;1.00;;;21.50;57.00;;;;;;5115611;28;20256;-69
2023/07/21 07:43:28;;;;;;;2.88;1.45;;;21.50;57.00;;;;;;5116147;28;20177;-69
2023/07/21 07:45:54;;;;;;;2.83;1.15;;;21.60;56.90;;;;;;5115416;28;20548;-68
2023/07/21 07:48:22;;;;;;;2.45;1.40;;;21.60;57.50;;;;;;5097397;28;20262;-67
2023/07/21 07:50:47;;;;;;;1.90;1.17;;;21.60;56.90;;;;;;5115663;28;20221;-67
2023/07/21 07:53:13;;;;;;;1.60;1.30;;;21.70;57.40;;;;;;5114864;28;20169;-67
2023/07/21 07:55:43;;;;;;;1.48;1.38;;;21.70;56.70;;;;;;5115636;28;20173;-67
2023/07/21 07:58:09;;;;;;;1.50;1.00;;;21.70;56.80;;;;;;5115374;28;20642;-68
2023/07/21 08:00:36;;;;;;;1.73;1.20;;;21.70;56.80;;;;;;5114890;28;20268;-68
2023/07/21 08:03:05;;;;;;;2.03;1.33;;;21.70;56.70;;;;;;5115397;28;20206;-68
2023/07/21 08:05:31;;;;;;;1.40;1.05;;;21.70;56.80;;;;;;5114866;28;20222;-69
2023/07/21 08:08:00;;;;;;;1.88;1.23;;;21.70;56.80;;;;;;5115185;28;20176;-68
2023/07/21 08:10:28;;;;;;;2.38;1.40;;;21.70;56.80;;;;;;5115250;28;20652;-68
2023/07/21 08:12:57;;;;;;;1.35;1.10;;;21.70;56.80;;;;;;5114705;28;20176;-67
2023/07/21 08:15:23;;;;;;;1.17;1.08;;;21.70;56.80;;;;;;5115397;28;20181;-68
2023/07/21 08:17:52;;;;;;;2.50;1.27;;;21.80;56.80;;;;;;5115351;28;20268;-67
2023/07/21 08:20:21;;;;;;;1.40;1.27;;;21.80;56.80;;;;;;5114391;28;20173;-67
2023/07/21 08:22:47;;;;;;;2.42;1.25;;;21.80;56.90;;;;;;5115196;28;20181;-68
2023/07/21 08:25:13;;;;;;;1.95;0.95;;;21.70;56.90;;;;;;5114910;28;20173;-67
2023/07/21 08:27:39;;;;;;;3.13;1.40;;;21.70;56.90;;;;;;5114324;28;20169;-68
2023/07/21 08:30:07;;;;;;;2.53;1.17;;;21.70;56.90;;;;;;5114606;28;20303;-69
2023/07/21 08:32:33;;;;;;;2.72;1.10;;;21.70;57.00;;;;;;5116616;27;20181;-68
2023/07/21 08:34:58;;;;;;;1.38;1.10;;;21.80;57.20;;;;;;5133983;27;20504;-69
2023/07/21 08:37:24;;;;;;;2.67;1.30;;;21.80;57.20;;;;;;5135720;27;20176;-68
2023/07/21 08:39:49;;;;;;;5.22;1.30;;;21.80;57.50;;;;;;5135468;27;20298;-69
2023/07/21 08:42:15;;;;;;;5.38;1.50;;;21.80;57.40;;;;;;5134436;27;20265;-69
2023/07/21 08:44:41;;;;;;;3.45;1.15;;;21.90;57.30;;;;;;5135702;27;20164;-68
2023/07/21 08:47:06;;;;;;;1.38;1.05;;;21.90;58.10;;;;;;5116924;27;20659;-68
2023/07/21 08:49:32;;;;;;;1.20;1.00;;;21.90;57.50;;;;;;5134634;27;20226;-68
2023/07/21 08:51:58;;;;;;;1.83;1.00;;;22.00;57.40;;;;;;5134993;27;20177;-70
2023/07/21 08:54:23;;;;;;;1.88;1.42;;;22.00;57.30;;;;;;5135240;27;20380;-70
2023/07/21 08:56:49;;;;;;;4.65;1.30;;;22.00;57.20;;;;;;5116039;27;20226;-68
2023/07/21 08:59:15;;;;;;;1.75;1.30;;;22.00;57.20;;;;;;5135033;27;20187;-69
2023/07/21 09:01:43;;;;;;;1.13;1.02;;;22.00;57.30;;;;;;5115945;27;20172;-70
2023/07/21 09:04:19;;;;;;;0.82;0.82;;;22.00;57.30;;;;;;5134723;27;20251;-69
2023/07/21 09:06:56;;;;;;;1.27;1.17;;;22.00;57.30;;;;;;5135054;27;20178;-72
2023/07/21 09:09:23;;;;;;;1.27;1.05;;;22.00;57.40;;;;;;5115989;27;20211;-69
2023/07/21 09:11:48;;;;;;;2.17;1.00;;;22.00;57.40;;;;;;5134931;27;20207;-70
2023/07/21 09:14:17;;;;;;;1.73;1.05;;;22.00;57.50;;;;;;5134560;27;20185;-69
2023/07/21 09:16:43;;;;;;;1.48;1.30;;;22.10;58.10;;;;;;5133999;27;20196;-69
2023/07/21 09:19:09;;;;;;;2.08;1.08;;;22.10;57.40;;;;;;5134341;27;20209;-69
2023/07/21 09:21:35;;;;;;;1.77;1.23;;;22.10;57.40;;;;;;5133974;27;20230;-69
2023/07/21 09:24:05;;;;;;;2.75;1.15;;;22.10;57.40;;;;;;5133721;27;20175;-69
2023/07/21 09:26:30;;;;;;;2.92;1.25;;;22.10;57.60;;;;;;5134669;27;20169;-69
2023/07/21 09:28:56;;;;;;;2.05;1.20;;;22.10;57.50;;;;;;5133975;27;20446;-70
2023/07/21 09:31:29;;;;;;;4.07;1.48;;;22.10;57.50;;;;;;5133702;27;20180;-71
2023/07/21 09:33:54;;;;;;;1.17;1.00;;;22.20;57.50;;;;;;5134541;27;20240;-73
2023/07/21 09:36:22;;;;;;;1.00;1.00;;;22.20;57.40;;;;;;5133549;27;20548;-73
2023/07/21 09:38:48;;;;;;;1.33;1.13;;;22.20;57.30;;;;;;5134041;27;20228;-73
2023/07/21 09:44:03;;;;;;;2.25;1.10;;;22.30;57.20;;;;;;5124373;27;20207;-73
2023/07/21 09:46:28;;;;;;;1.70;1.08;;;22.30;57.20;;;;;;5133539;27;20168;-72
2023/07/21 09:48:54;;;;;;;1.38;1.23;;;22.40;57.20;;;;;;5133873;27;20182;-70
2023/07/21 09:51:20;;;;;;;1.13;0.93;;;22.40;57.10;;;;;;5133058;27;20179;-70
2023/07/21 09:53:46;;;;;;;0.90;0.90;;;22.40;57.00;;;;;;5133987;27;20167;-69
2023/07/21 09:56:12;;;;;;;1.77;0.90;;;22.50;56.90;;;;;;5115268;27;20172;-71
2023/07/21 09:58:54;;;;;;;1.23;1.00;;;22.50;56.80;;;;;;5133059;27;20264;-71
2023/07/21 10:01:20;;;;;;;2.58;1.10;;;22.50;56.90;;;;;;5115140;27;20647;-73
2023/07/21 10:03:46;;;;;;;1.27;1.17;;;22.50;56.90;;;;;;5115687;27;20180;-71
2023/07/21 10:06:12;;;;;;;3.90;1.15;;;22.50;56.80;;;;;;5132663;27;20177;-71
2023/07/21 10:08:38;;;;;;;1.08;1.00;;;22.60;56.80;;;;;;5133623;27;20177;-70
2023/07/21 10:11:04;;;;;;;2.22;1.00;;;22.60;56.70;;;;;;5133270;27;20212;-71
2023/07/21 10:13:31;;;;;;;1.15;1.08;;;22.60;56.70;;;;;;5114719;27;20615;-71
2023/07/21 10:16:05;;;;;;;1.75;0.85;;;22.60;56.70;;;;;;5133188;27;20591;-73
2023/07/21 10:18:31;;;;;;;1.45;0.80;;;22.70;56.80;;;;;;5133740;27;20178;-70
2023/07/21 10:20:56;;;;;;;1.08;0.98;;;22.70;57.30;;;;;;5114262;27;20263;-71
2023/07/21 10:23:29;;;;;;;1.38;0.90;;;22.70;56.50;;;;;;5115157;27;20184;-71
2023/07/21 10:25:59;;;;;;;2.28;1.30;;;22.80;56.50;;;;;;5132984;27;20673;-68
2023/07/21 10:28:37;;;;;;;1.67;1.40;;;22.80;56.30;;;;;;5133916;27;20237;-70
2023/07/21 10:31:21;;;;;;;2.08;0.90;;;22.80;56.30;;;;;;5133109;27;20235;-70
2023/07/21 10:34:12;;;;;;;1.70;1.10;;;22.70;56.40;;;;;;5132389;27;20173;-69
2023/07/21 10:36:47;;;;;;;0.88;0.88;;;22.70;56.50;;;;;;5132950;27;20233;-69
2023/07/21 10:39:14;;;;;;;1.52;0.90;;;22.70;56.40;;;;;;5132800;27;20272;-70
2023/07/21 10:41:40;;;;;;;1.75;1.08;;;22.70;56.40;;;;;;5132666;27;20708;-69
2023/07/21 10:44:07;;;;;;;2.08;0.80;;;22.80;56.30;;;;;;5132964;27;20180;-68
2023/07/21 10:46:43;;;;;;;9.15;3.97;;;22.80;56.10;;;;;;5133169;28;20520;-68
2023/07/21 10:49:09;;;;;;;6.88;2.17;;;22.80;56.10;;;;;;5132319;28;20188;-68
2023/07/21 10:51:35;;;;;;;10.40;3.95;;;22.90;56.00;;;;;;5133150;28;20181;-67
2023/07/21 10:54:00;;;;;;;14.65;5.50;;;22.90;55.90;;;;;;5132994;28;20253;-68
2023/07/21 10:56:27;;;;;;;17.38;7.38;;;23.00;56.00;;;;;;5132615;28;20176;-67
2023/07/21 10:58:52;;;;;;;20.63;7.53;;;22.90;55.90;;;;;;5135618;27;20647;-69
2023/07/21 11:01:19;;;;;;;17.35;7.28;;;22.90;56.00;;;;;;5136807;27;20229;-70
2023/07/21 11:03:46;;;;;;;15.95;7.20;;;22.90;56.10;;;;;;5137603;27;20180;-68
2023/07/21 11:06:15;;;;;;;18.58;7.63;;;22.90;56.10;;;;;;5137028;27;20635;-69
2023/07/21 11:08:40;;;;;;;16.38;7.43;;;22.90;56.20;;;;;;5136256;27;20216;-68
2023/07/21 11:11:08;;;;;;;18.88;7.32;;;22.90;56.10;;;;;;5136808;27;20662;-69
2023/07/21 11:13:33;;;;;;;17.20;7.07;;;22.90;55.80;;;;;;5137004;27;20188;-70
2023/07/21 11:16:00;;;;;;;14.02;6.55;;;22.90;55.40;;;;;;5135999;27;20518;-70
2023/07/21 11:18:27;;;;;;;13.05;5.72;;;22.90;55.50;;;;;;5118666;27;20584;-68
2023/07/21 11:20:53;;;;;;;12.30;5.68;;;22.90;55.40;;;;;;5137000;27;20173;-68
2023/07/21 11:23:20;;;;;;;12.10;5.82;;;22.90;55.40;;;;;;5136003;27;20217;-68
2023/07/21 11:26:11;;;;;;;11.05;4.65;;;22.90;55.40;;;;;;5136765;27;20586;-68
2023/07/21 11:28:41;;;;;;;11.82;5.13;;;22.90;55.40;;;;;;5137020;27;20168;-67
2023/07/21 11:31:12;;;;;;;10.73;5.03;;;23.00;55.40;;;;;;5135684;27;20570;-70
2023/07/21 11:33:42;;;;;;;12.35;5.45;;;23.00;55.30;;;;;;5136639;27;20255;-70
2023/07/21 11:36:28;;;;;;;9.68;4.47;;;23.00;55.30;;;;;;5136574;27;20516;-71
2023/07/21 11:38:59;;;;;;;7.53;4.80;;;23.00;55.20;;;;;;5136592;27;20264;-71
2023/07/21 11:41:47;;;;;;;11.45;4.03;;;23.00;55.60;;;;;;5136878;27;20257;-71
2023/07/21 11:44:25;;;;;;;8.80;4.10;;;23.10;54.90;;;;;;5118031;27;20195;-69
2023/07/21 11:47:10;;;;;;;9.27;4.30;;;23.10;54.70;;;;;;5136454;27;20203;-68
2023/07/21 11:49:45;;;;;;;7.78;3.72;;;23.10;54.60;;;;;;5136359;27;20212;-68
2023/07/21 11:52:22;;;;;;;8.13;3.75;;;23.10;54.50;;;;;;5134763;27;20201;-68
2023/07/21 11:54:47;;;;;;;5.45;3.20;;;23.10;54.40;;;;;;5136366;27;20241;-68
2023/07/21 11:57:13;;;;;;;6.13;3.53;;;23.10;54.50;;;;;;5135983;27;20627;-69
2023/07/21 11:59:38;;;;;;;6.38;3.15;;;23.10;54.50;;;;;;5135695;27;20252;-71
2023/07/21 12:02:05;;;;;;;8.07;3.80;;;23.10;54.50;;;;;;5135904;27;20172;-70
2023/07/21 12:04:31;;;;;;;7.45;3.38;;;23.20;54.40;;;;;;5135631;27;20176;-70
2023/07/21 12:06:56;;;;;;;7.65;3.63;;;23.20;54.30;;;;;;5135937;27;20217;-70
2023/07/21 12:09:23;;;;;;;8.85;3.35;;;23.20;54.20;;;;;;5135376;27;20675;-68
2023/07/21 12:11:48;;;;;;;6.75;3.10;;;23.30;54.20;;;;;;5116921;27;20645;-69
2023/07/21 12:14:14;;;;;;;4.07;3.00;;;23.20;54.10;;;;;;5135954;27;20200;-69
2023/07/21 12:16:39;;;;;;;6.00;3.08;;;23.20;54.20;;;;;;5136181;27;20627;-68
2023/07/21 12:19:07;;;;;;;6.25;2.88;;;23.20;54.30;;;;;;5135052;27;20654;-69
2023/07/21 12:21:33;;;;;;;6.30;3.45;;;23.10;54.40;;;;;;5136084;27;20249;-69
2023/07/21 12:23:59;;;;;;;3.85;2.63;;;23.10;54.50;;;;;;5135377;27;20631;-69
2023/07/21 12:26:24;;;;;;;5.15;2.80;;;23.10;54.50;;;;;;5135171;27;20180;-68
2023/07/21 12:28:50;;;;;;;5.57;2.85;;;23.10;54.40;;;;;;5135922;27;20176;-69
2023/07/21 12:31:16;;;;;;;4.85;2.80;;;23.00;54.60;;;;;;5135516;27;20686;-70
2023/07/21 12:33:42;;;;;;;5.50;2.58;;;23.00;54.60;;;;;;5134998;27;20173;-70
2023/07/21 12:36:09;;;;;;;6.05;2.95;;;23.00;54.70;;;;;;5135138;27;20204;-72
2023/07/21 12:38:34;;;;;;;4.25;2.55;;;23.00;54.70;;;;;;5135377;27;20631;-70
2023/07/21 12:41:00;;;;;;;4.45;2.63;;;23.00;54.80;;;;;;5134406;27;20183;-71
2023/07/21 12:43:25;;;;;;;5.20;2.60;;;23.00;55.40;;;;;;5135341;27;20177;-70
2023/07/21 12:45:51;;;;;;;4.30;2.65;;;23.00;54.80;;;;;;5135586;27;20246;-69